Terminal Aerodrome Forecast
Issued by NWS Duluth, MN

Home | Current Version | Previous Version | Text Only | Print | Product List | Glossary On
Versions: 1 2 3 4 5 6 7 8 9 10 11 12 13 14 15 16
165
FTUS43 KDLH 271120
TAFDLH
TAF
KDLH 271120Z 2712/2812 VRB03KT P6SM FEW200
     FM271600 27005KT P6SM SCT200
     FM272200 19005KT P6SM SCT200
     FM280600 VRB04KT P6SM VCSH SCT100 BKN200=

USA.gov is the U.S. government's official web portal to all federal, state and local government web resources and services.